Laman API Video Percuma Terbaik

AVDBAPI.COM

Cari katalog, semak rekod, dan salin URL API bersih daripada papan pemuka pantas.

Telegram Join Our Telegram Community for Updates!
Today
93
Kemaskini Hari Ini
Censored
313977
Censored Videos
Total
474136
Total Videos

Senarai Video

Rekod terkini disusun mengikut masa kemas kini.

ID Nama CODE Kategori Dikemaskini API
268286 041619-070 0419-070 Wanita matang yang tidak cantik tetapi sangat teringin dikentot 041619-070 Tanpa sensor 2025-08-29 13:12:40 API
268285 C0930-KI191119 Azusa Hatanaka Wanita Matang 40 Tahun yang Menggiurkan C0930-KI191119 Tanpa sensor 2025-08-29 13:12:30 API
268284 112119-01 Amatur Tanpa Mekap ~ Jangan tengok ~ 112119-01 Tanpa sensor 2025-08-29 13:12:20 API
268283 HEYZO-2273 Pinggang menggoda wanita idaman HEYZO-2273 Tanpa sensor 2025-08-29 13:12:10 API
268282 H4610-KI210227 Koleksi Video Permintaan Paling Hot H4610-KI210227 Tanpa sensor 2025-08-29 13:12:00 API
268281 H0930-KI200514 Ritsuko Harada Umur 32 Tahun H0930-KI200514 Tanpa sensor 2025-08-29 13:11:50 API
268280 072120-001 Rino Sakuragi, isteri cantik yang terlalu leka sehingga menyambut tetamu dalam keadaan bogel 072120-001 Tanpa sensor 2025-08-29 13:11:40 API
268279 100218_750 Hidup Bersama Dan Encer Creampie Semasa Curang Ketika Suami Tiada di Rumah 100218_750 Tanpa sensor 2025-08-29 13:11:30 API
268278 041819-071 Dokumentasi Penggambaran Pertama Isteri Amatir Michiko Doi 041819-071 Tanpa sensor 2025-08-29 13:11:20 API
268277 C0930-KI191121 Michiru Saeki Wanita Matang 43 Tahun C0930-KI191121 Tanpa sensor 2025-08-29 13:11:10 API
268276 FC2-PPV-4464501 Aoki sangat popular dalam kalangan suri rumah di Tagura dengan 10,000 pengikut. Saya akan tunaikan segala keinginan anda! Tapi sebenarnya saya ini perempuan beristeri yang menjijikkan kerana suka onani di tempat awam FC2-PPV-4464501 Tanpa sensor 2025-08-29 13:11:00 API
268275 HEYZO-2274 Saya memeluk kakak perempuan kawan lelaki saya! HEYZO-2274 Tanpa sensor 2025-08-29 13:10:50 API
268274 112219-01 Koleksi Puki Pilihan - Sila Lihat Puki Yui - 112219-01 Tanpa sensor 2025-08-29 13:10:40 API
268273 100418_751 Koleksi Model Seksi Louis Hayakawa 100418_751 Tanpa sensor 2025-08-29 13:10:30 API
268272 H0930-TK0017 Mikiko Ogata Wanita Matang 37 Tahun H0930-TK0017 Tanpa sensor 2025-08-29 13:10:20 API
268271 H4610-KI210302 Sarina Takahashi, gadis hot 22 tahun H4610-KI210302 Tanpa sensor 2025-08-29 13:10:10 API
268270 K1445 Wanita Mangsa - K1445 Tanpa sensor 2025-08-29 13:10:00 API
268269 072220-001 Rakaman yang tidak pernah dikeluarkan 072220-001 Tanpa sensor 2025-08-29 13:09:50 API
268268 C0930-KI191123 Selfie Sambil Onani C0930-KI191123 Tanpa sensor 2025-08-29 13:09:40 API
268267 112319-01 Lepas tengok AV, saya rasa nak cuba cabaran telan air mani 112319-01 Tanpa sensor 2025-08-29 13:09:30 API
268266 FC2-PPV-4464153 Model terkenal dan 49,000 peminat menyerbu Universiti Kaiwaka. Gadis kedua bertubuh langsing dan sangat cantik FC2-PPV-4464153 Tanpa sensor 2025-08-29 13:09:20 API
268265 HEYZO-2275 May Doll Vol.16 ~ Patung May ~ Patung Seks Penurut Milik Tuan ~ HEYZO-2275 Tanpa sensor 2025-08-29 13:09:10 API
268264 042019-073 Kamera Tersembunyi Suri Rumah 25 ~ Mata Ditutup Dan Dikentot Suami!? ~ 042019-073 Tanpa sensor 2025-08-29 13:09:00 API
268263 100618_752 Pancutan Ekstrem Bersama Kotomi Yamasaki 100618_752 Tanpa sensor 2025-08-29 13:08:50 API
268262 C0930-HITOZUMA1300 Haruka Fuwa Wanita Cantik 29 Tahun C0930-HITOZUMA1300 Tanpa sensor 2025-08-29 13:08:40 API
268261 072420-001 Pengsan Kerana Nikmat! Encik Aoyama ~ Guru wanita baru mahu diajar dengan pancutan sperma dalam faraj ~ Hana Aoyama 072420-001 Tanpa sensor 2025-08-29 13:08:30 API
268260 H0930-KI200517 Wanita Cantik Berusia 29 Tahun Hitoe Kanamori H0930-KI200517 Tanpa sensor 2025-08-29 13:08:20 API
268259 SKY-235 Malaikat Langit 146: Inilah Dia SKY-235 Tanpa sensor 2025-08-29 13:08:10 API
268258 112619-01 Cara Gadis Ini Bekerja ~ Tolong ukur payudara besar yang cantik ini ~ 112619-01 Tanpa sensor 2025-08-29 13:08:00 API
268257 H4610-KI210304 Yuka Maishima, Wanita 25 Tahun H4610-KI210304 Tanpa sensor 2025-08-29 13:07:50 API
268256 100818_753 Gangbang Lesbian ~ Natsumi Hirose & Kanae Murakami ~ 100818_753 Tanpa sensor 2025-08-29 13:07:40 API
268255 042019-072 Mak Cik Gatal ~ Kes Nanako Asahina ~ 042019-072 Tanpa sensor 2025-08-29 13:07:30 API
268254 HEYZO-2276 Kenikmatan dengan Urutan Erotik! ~ Hatsune Rori ~ HEYZO-2276 Tanpa sensor 2025-08-29 13:07:20 API
268253 FC2-PPV-4463348 "Ahh... takutnya... saya rasa..." Seorang wanita langsing yang tenang yang sepatutnya terjerat dalam perangkapku, tetapi dia sangat comel semasa menjulurkan lidahnya untuk merangsang nafsu seksualku FC2-PPV-4463348 Tanpa sensor 2025-08-29 13:07:10 API
268252 072520-001 Saya mahu goyang pinggul sepanjang hari hari ini Chiaki Hidaka 072520-001 Tanpa sensor 2025-08-29 13:07:00 API
268251 H0930-KI200516 Masturbasi Sambil Selfie Yang Sangat Nakal H0930-KI200516 Tanpa sensor 2025-08-29 13:06:50 API
268250 H4610-TK0030 Gadis Cantik Berusia 21 Tahun Kushimoto Misato H4610-TK0030 Tanpa sensor 2025-08-29 13:06:40 API
268249 101118_754 Pelacur M Himeno Mirai 101118_754 Tanpa sensor 2025-08-29 13:06:30 API
268248 HEYZO-2294 Sophia - Gadis Bunny Pirang Seksi Kena Creampie Melimpah # Sophia 2 HEYZO-2294 Tanpa sensor 2025-08-29 13:06:20 API
268247 112819-01 Gadis Cosplay Deriheru yang sanggup buat BJ sambil mengemas rumah 112819-01 Tanpa sensor 2025-08-29 13:06:10 API
268246 K1446 Wanita Mangsa - K1446 Tanpa sensor 2025-08-29 13:06:00 API
268245 042319-074 Wanita Menjadi Alat Mainan Seks Selepas Menopause 042319-074 Tanpa sensor 2025-08-29 13:05:50 API
268244 FC2-PPV-4452838 Kisah Pelik dan Peristiwa Menarik: Perjalanan Dari Kehamilan Hingga Selepas Bersalin Seorang Wanita Yang Baru Mengandung FC2-PPV-4452838 Tanpa sensor 2025-08-29 13:05:40 API
268243 072620-001 Playcon Eksklusif: Hinata An di Soap Land 9 yang Mengghairahkan 072620-001 Tanpa sensor 2025-08-29 13:05:30 API
268241 101318_755 Tokimeki ~ Tubuhnya Membuatku Gila ~ 101318_755 Tanpa sensor 2025-08-29 13:05:10 API
268239 H0930-KI200519 Ayumu Noda Wanita Matang 38 Tahun H0930-KI200519 Tanpa sensor 2025-08-29 13:04:50 API
268238 113019-01 Era Seragam: Kemeja Ketat Menampakkan Payudara F 113019-01 Tanpa sensor 2025-08-29 13:04:40 API
268236 042519-075 Buku Gambar Khemak Isteri Orang 113 042519-075 Tanpa sensor 2025-08-29 13:04:20 API
268235 HEYZO-2277 OL Cantik Yang Dah 6 Bulan Tak Dikentot Dengan Kaki Yang Menggoda HEYZO-2277 Tanpa sensor 2025-08-29 13:04:10 API
268234 072820-001 Saya Akan Menjilat Kamu Sampai Cair Macam Aiskrim 072820-001 Tanpa sensor 2025-08-29 13:04:00 API